sensor_id;sensor_type;location;lat;lon;timestamp;temperature;humidity
16700;DHT22;8466;52.286;21.124;2024-02-23T00:01:24;8.40;99.90
16700;DHT22;8466;52.286;21.124;2024-02-23T00:03:53;8.40;99.90
16700;DHT22;8466;52.286;21.124;2024-02-23T00:06:23;8.40;99.90
16700;DHT22;8466;52.286;21.124;2024-02-23T00:08:55;8.40;99.90
16700;DHT22;8466;52.286;21.124;2024-02-23T00:11:25;8.30;99.90
16700;DHT22;8466;52.286;21.124;2024-02-23T00:13:56;8.30;99.90
16700;DHT22;8466;52.286;21.124;2024-02-23T00:16:25;8.40;99.90
16700;DHT22;8466;52.286;21.124;2024-02-23T00:18:54;8.40;99.90
16700;DHT22;8466;52.286;21.124;2024-02-23T00:21:24;8.40;99.90
16700;DHT22;8466;52.286;21.124;2024-02-23T00:23:52;8.40;99.90
16700;DHT22;8466;52.286;21.124;2024-02-23T00:26:22;8.40;99.90
16700;DHT22;8466;52.286;21.124;2024-02-23T00:28:51;8.30;99.90
16700;DHT22;8466;52.286;21.124;2024-02-23T00:31:21;8.30;99.90
16700;DHT22;8466;52.286;21.124;2024-02-23T00:33:50;8.40;99.90
16700;DHT22;8466;52.286;21.124;2024-02-23T00:36:19;8.30;99.90
16700;DHT22;8466;52.286;21.124;2024-02-23T00:38:48;8.30;99.90
16700;DHT22;8466;52.286;21.124;2024-02-23T00:41:17;8.40;99.90
16700;DHT22;8466;52.286;21.124;2024-02-23T00:43:46;8.40;99.90
16700;DHT22;8466;52.286;21.124;2024-02-23T00:46:15;8.30;99.90
16700;DHT22;8466;52.286;21.124;2024-02-23T00:48:45;8.30;99.90
16700;DHT22;8466;52.286;21.124;2024-02-23T00:51:14;8.30;99.90
16700;DHT22;8466;52.286;21.124;2024-02-23T00:53:43;8.40;99.90
16700;DHT22;8466;52.286;21.124;2024-02-23T00:56:12;8.30;99.90
16700;DHT22;8466;52.286;21.124;2024-02-23T00:58:41;8.30;99.90
16700;DHT22;8466;52.286;21.124;2024-02-23T01:01:10;8.30;99.90
16700;DHT22;8466;52.286;21.124;2024-02-23T01:03:39;8.30;99.90
16700;DHT22;8466;52.286;21.124;2024-02-23T01:06:10;8.30;99.90
16700;DHT22;8466;52.286;21.124;2024-02-23T01:08:39;8.30;99.90
16700;DHT22;8466;52.286;21.124;2024-02-23T01:11:08;8.30;99.90
16700;DHT22;8466;52.286;21.124;2024-02-23T01:13:37;8.40;99.90
16700;DHT22;8466;52.286;21.124;2024-02-23T01:16:06;8.30;99.90
16700;DHT22;8466;52.286;21.124;2024-02-23T01:18:35;8.40;99.90
16700;DHT22;8466;52.286;21.124;2024-02-23T01:21:04;8.30;99.90
16700;DHT22;8466;52.286;21.124;2024-02-23T01:23:35;8.30;99.90
16700;DHT22;8466;52.286;21.124;2024-02-23T01:26:04;8.30;99.90
16700;DHT22;8466;52.286;21.124;2024-02-23T01:28:33;8.30;99.90
16700;DHT22;8466;52.286;21.124;2024-02-23T01:31:02;8.40;99.90
16700;DHT22;8466;52.286;21.124;2024-02-23T01:33:31;8.30;99.90
16700;DHT22;8466;52.286;21.124;2024-02-23T01:36:00;8.40;99.90
16700;DHT22;8466;52.286;21.124;2024-02-23T01:38:29;8.40;99.90
16700;DHT22;8466;52.286;21.124;2024-02-23T01:41:01;8.40;99.90
16700;DHT22;8466;52.286;21.124;2024-02-23T01:43:30;8.30;99.90
16700;DHT22;8466;52.286;21.124;2024-02-23T01:45:59;8.30;99.90
16700;DHT22;8466;52.286;21.124;2024-02-23T01:48:28;8.30;99.90
16700;DHT22;8466;52.286;21.124;2024-02-23T01:50:57;8.30;99.90
16700;DHT22;8466;52.286;21.124;2024-02-23T01:53:27;8.30;99.90
16700;DHT22;8466;52.286;21.124;2024-02-23T01:55:57;8.30;99.90
16700;DHT22;8466;52.286;21.124;2024-02-23T01:58:30;8.40;99.90
16700;DHT22;8466;52.286;21.124;2024-02-23T02:00:59;8.40;99.90
16700;DHT22;8466;52.286;21.124;2024-02-23T02:03:28;8.40;99.90
16700;DHT22;8466;52.286;21.124;2024-02-23T02:05:58;8.50;99.90
16700;DHT22;8466;52.286;21.124;2024-02-23T02:08:27;8.50;99.90
16700;DHT22;8466;52.286;21.124;2024-02-23T02:10:56;8.50;99.90
16700;DHT22;8466;52.286;21.124;2024-02-23T02:13:25;8.60;99.90
16700;DHT22;8466;52.286;21.124;2024-02-23T02:15:58;8.60;99.90
16700;DHT22;8466;52.286;21.124;2024-02-23T02:18:29;8.50;99.90
16700;DHT22;8466;52.286;21.124;2024-02-23T02:20:58;8.50;99.90
16700;DHT22;8466;52.286;21.124;2024-02-23T02:23:26;8.60;99.90
16700;DHT22;8466;52.286;21.124;2024-02-23T02:25:56;8.60;99.90
16700;DHT22;8466;52.286;21.124;2024-02-23T02:28:26;8.60;99.90
16700;DHT22;8466;52.286;21.124;2024-02-23T02:30:57;8.60;99.90
16700;DHT22;8466;52.286;21.124;2024-02-23T02:33:26;8.70;99.90
16700;DHT22;8466;52.286;21.124;2024-02-23T02:35:55;8.70;99.90
16700;DHT22;8466;52.286;21.124;2024-02-23T02:38:24;8.70;99.90
16700;DHT22;8466;52.286;21.124;2024-02-23T02:40:53;8.70;99.90
16700;DHT22;8466;52.286;21.124;2024-02-23T02:43:22;8.70;99.90
16700;DHT22;8466;52.286;21.124;2024-02-23T02:45:51;8.60;99.90
16700;DHT22;8466;52.286;21.124;2024-02-23T02:48:21;8.60;99.90
16700;DHT22;8466;52.286;21.124;2024-02-23T02:50:50;8.60;99.90
16700;DHT22;8466;52.286;21.124;2024-02-23T02:53:20;8.60;99.90
16700;DHT22;8466;52.286;21.124;2024-02-23T02:55:49;8.50;99.90
16700;DHT22;8466;52.286;21.124;2024-02-23T02:58:18;8.60;99.90
16700;DHT22;8466;52.286;21.124;2024-02-23T03:00:46;8.60;99.90
16700;DHT22;8466;52.286;21.124;2024-02-23T03:03:15;8.60;99.90
16700;DHT22;8466;52.286;21.124;2024-02-23T03:05:46;8.70;99.90
16700;DHT22;8466;52.286;21.124;2024-02-23T03:08:15;8.70;99.90
16700;DHT22;8466;52.286;21.124;2024-02-23T03:10:44;8.70;99.90
16700;DHT22;8466;52.286;21.124;2024-02-23T03:13:13;8.70;99.90
16700;DHT22;8466;52.286;21.124;2024-02-23T03:15:42;8.70;99.90
16700;DHT22;8466;52.286;21.124;2024-02-23T03:18:11;8.70;99.90
16700;DHT22;8466;52.286;21.124;2024-02-23T03:20:42;8.70;99.90
16700;DHT22;8466;52.286;21.124;2024-02-23T03:23:12;8.70;99.90
16700;DHT22;8466;52.286;21.124;2024-02-23T03:25:41;8.70;99.90
16700;DHT22;8466;52.286;21.124;2024-02-23T03:28:10;8.70;99.90
16700;DHT22;8466;52.286;21.124;2024-02-23T03:30:39;8.70;99.90
16700;DHT22;8466;52.286;21.124;2024-02-23T03:33:08;8.70;99.90
16700;DHT22;8466;52.286;21.124;2024-02-23T03:35:37;8.80;99.90
16700;DHT22;8466;52.286;21.124;2024-02-23T03:38:06;8.90;99.90
16700;DHT22;8466;52.286;21.124;2024-02-23T03:40:37;8.70;99.90
16700;DHT22;8466;52.286;21.124;2024-02-23T03:43:06;8.70;99.90
16700;DHT22;8466;52.286;21.124;2024-02-23T03:45:35;8.60;99.90
16700;DHT22;8466;52.286;21.124;2024-02-23T03:48:05;8.60;99.90
16700;DHT22;8466;52.286;21.124;2024-02-23T03:50:34;8.50;99.90
16700;DHT22;8466;52.286;21.124;2024-02-23T03:53:03;8.50;99.90
16700;DHT22;8466;52.286;21.124;2024-02-23T03:55:32;8.50;99.90
16700;DHT22;8466;52.286;21.124;2024-02-23T03:58:03;8.40;99.90
16700;DHT22;8466;52.286;21.124;2024-02-23T04:00:31;8.30;99.90
16700;DHT22;8466;52.286;21.124;2024-02-23T04:03:01;8.30;99.90
16700;DHT22;8466;52.286;21.124;2024-02-23T04:05:30;8.20;99.90
16700;DHT22;8466;52.286;21.124;2024-02-23T04:07:59;8.20;99.90
16700;DHT22;8466;52.286;21.124;2024-02-23T04:10:29;8.20;99.90
16700;DHT22;8466;52.286;21.124;2024-02-23T04:12:58;8.10;99.90
16700;DHT22;8466;52.286;21.124;2024-02-23T04:15:28;8.10;99.90
16700;DHT22;8466;52.286;21.124;2024-02-23T04:17:57;8.10;99.90
16700;DHT22;8466;52.286;21.124;2024-02-23T04:20:26;8.10;99.90
16700;DHT22;8466;52.286;21.124;2024-02-23T04:22:55;8.00;99.90
16700;DHT22;8466;52.286;21.124;2024-02-23T04:25:28;8.00;99.90
16700;DHT22;8466;52.286;21.124;2024-02-23T04:27:57;8.00;99.90
16700;DHT22;8466;52.286;21.124;2024-02-23T04:30:27;8.00;99.90
16700;DHT22;8466;52.286;21.124;2024-02-23T04:32:56;8.00;99.90
16700;DHT22;8466;52.286;21.124;2024-02-23T04:35:25;8.00;99.90
16700;DHT22;8466;52.286;21.124;2024-02-23T04:37:54;7.90;99.90
16700;DHT22;8466;52.286;21.124;2024-02-23T04:40:23;7.90;99.90
16700;DHT22;8466;52.286;21.124;2024-02-23T04:42:52;8.00;99.90
16700;DHT22;8466;52.286;21.124;2024-02-23T04:45:20;8.00;99.90
16700;DHT22;8466;52.286;21.124;2024-02-23T04:47:51;7.90;99.90
16700;DHT22;8466;52.286;21.124;2024-02-23T04:50:20;7.90;99.90
16700;DHT22;8466;52.286;21.124;2024-02-23T04:52:49;7.90;99.90
16700;DHT22;8466;52.286;21.124;2024-02-23T04:55:18;7.90;99.90
16700;DHT22;8466;52.286;21.124;2024-02-23T04:57:48;8.00;99.90
16700;DHT22;8466;52.286;21.124;2024-02-23T05:00:17;8.00;99.90
16700;DHT22;8466;52.286;21.124;2024-02-23T05:02:46;8.00;99.90
16700;DHT22;8466;52.286;21.124;2024-02-23T05:05:16;7.90;99.90
16700;DHT22;8466;52.286;21.124;2024-02-23T05:07:45;7.90;99.90
16700;DHT22;8466;52.286;21.124;2024-02-23T05:10:14;7.90;99.90
16700;DHT22;8466;52.286;21.124;2024-02-23T05:12:44;7.90;99.90
16700;DHT22;8466;52.286;21.124;2024-02-23T05:15:13;7.90;99.90
16700;DHT22;8466;52.286;21.124;2024-02-23T05:17:42;7.90;99.90
16700;DHT22;8466;52.286;21.124;2024-02-23T05:20:12;7.80;99.90
16700;DHT22;8466;52.286;21.124;2024-02-23T05:22:43;7.80;99.90
16700;DHT22;8466;52.286;21.124;2024-02-23T05:25:12;7.80;99.90
16700;DHT22;8466;52.286;21.124;2024-02-23T05:27:41;7.90;99.90
16700;DHT22;8466;52.286;21.124;2024-02-23T05:30:12;7.90;99.90
16700;DHT22;8466;52.286;21.124;2024-02-23T05:32:41;7.80;99.90
16700;DHT22;8466;52.286;21.124;2024-02-23T05:35:10;7.90;99.90
16700;DHT22;8466;52.286;21.124;2024-02-23T05:37:43;7.90;99.90
16700;DHT22;8466;52.286;21.124;2024-02-23T05:40:12;7.80;99.90
16700;DHT22;8466;52.286;21.124;2024-02-23T05:42:41;7.80;99.90
16700;DHT22;8466;52.286;21.124;2024-02-23T05:45:10;7.80;99.90
16700;DHT22;8466;52.286;21.124;2024-02-23T05:47:39;7.80;99.90
16700;DHT22;8466;52.286;21.124;2024-02-23T05:50:14;7.90;99.90
16700;DHT22;8466;52.286;21.124;2024-02-23T05:52:45;8.00;99.90
16700;DHT22;8466;52.286;21.124;2024-02-23T05:55:14;8.00;99.90
16700;DHT22;8466;52.286;21.124;2024-02-23T05:57:43;7.90;99.90
16700;DHT22;8466;52.286;21.124;2024-02-23T06:00:13;7.90;99.90
16700;DHT22;8466;52.286;21.124;2024-02-23T06:02:42;8.00;99.90
16700;DHT22;8466;52.286;21.124;2024-02-23T06:05:12;7.90;99.90
16700;DHT22;8466;52.286;21.124;2024-02-23T06:07:45;8.00;99.90
16700;DHT22;8466;52.286;21.124;2024-02-23T06:10:14;8.00;99.90
16700;DHT22;8466;52.286;21.124;2024-02-23T06:12:43;8.00;99.90
16700;DHT22;8466;52.286;21.124;2024-02-23T06:15:12;8.00;99.90
16700;DHT22;8466;52.286;21.124;2024-02-23T06:17:41;8.00;99.90
16700;DHT22;8466;52.286;21.124;2024-02-23T06:20:11;8.00;99.90
16700;DHT22;8466;52.286;21.124;2024-02-23T06:22:39;7.90;99.90
16700;DHT22;8466;52.286;21.124;2024-02-23T06:25:10;7.90;99.90
16700;DHT22;8466;52.286;21.124;2024-02-23T06:27:39;8.00;99.90
16700;DHT22;8466;52.286;21.124;2024-02-23T06:30:09;8.00;99.90
16700;DHT22;8466;52.286;21.124;2024-02-23T06:32:38;8.00;99.90
16700;DHT22;8466;52.286;21.124;2024-02-23T06:35:08;8.00;99.90
16700;DHT22;8466;52.286;21.124;2024-02-23T06:37:39;8.20;99.90
16700;DHT22;8466;52.286;21.124;2024-02-23T06:40:10;8.20;99.90
16700;DHT22;8466;52.286;21.124;2024-02-23T06:42:39;8.20;99.90
16700;DHT22;8466;52.286;21.124;2024-02-23T06:45:08;8.30;99.90
16700;DHT22;8466;52.286;21.124;2024-02-23T06:47:37;8.30;99.90
16700;DHT22;8466;52.286;21.124;2024-02-23T06:50:08;8.30;99.90
16700;DHT22;8466;52.286;21.124;2024-02-23T06:52:37;8.30;99.90
16700;DHT22;8466;52.286;21.124;2024-02-23T06:55:06;8.20;99.90
16700;DHT22;8466;52.286;21.124;2024-02-23T06:57:38;8.30;99.90
16700;DHT22;8466;52.286;21.124;2024-02-23T07:00:08;8.30;99.90
16700;DHT22;8466;52.286;21.124;2024-02-23T07:02:37;8.40;99.90
16700;DHT22;8466;52.286;21.124;2024-02-23T07:05:07;8.40;99.90
16700;DHT22;8466;52.286;21.124;2024-02-23T07:07:36;8.40;99.90
16700;DHT22;8466;52.286;21.124;2024-02-23T07:10:08;8.30;99.90
16700;DHT22;8466;52.286;21.124;2024-02-23T07:12:39;8.40;99.90
16700;DHT22;8466;52.286;21.124;2024-02-23T07:15:08;8.40;99.90
16700;DHT22;8466;52.286;21.124;2024-02-23T07:17:37;8.40;99.90
16700;DHT22;8466;52.286;21.124;2024-02-23T07:20:06;8.50;99.90
16700;DHT22;8466;52.286;21.124;2024-02-23T07:22:36;8.50;99.90
16700;DHT22;8466;52.286;21.124;2024-02-23T07:25:06;8.60;99.90
16700;DHT22;8466;52.286;21.124;2024-02-23T07:27:44;8.60;99.90
16700;DHT22;8466;52.286;21.124;2024-02-23T07:30:13;8.60;99.90
16700;DHT22;8466;52.286;21.124;2024-02-23T07:32:43;8.70;99.90
16700;DHT22;8466;52.286;21.124;2024-02-23T07:35:19;8.70;99.90
16700;DHT22;8466;52.286;21.124;2024-02-23T07:37:50;8.70;99.90
16700;DHT22;8466;52.286;21.124;2024-02-23T07:40:19;8.70;99.90
16700;DHT22;8466;52.286;21.124;2024-02-23T07:42:50;8.70;99.90
16700;DHT22;8466;52.286;21.124;2024-02-23T07:45:19;8.80;99.90
16700;DHT22;8466;52.286;21.124;2024-02-23T07:47:47;8.70;99.90
16700;DHT22;8466;52.286;21.124;2024-02-23T07:50:16;8.80;99.90
16700;DHT22;8466;52.286;21.124;2024-02-23T07:52:46;8.80;99.90
16700;DHT22;8466;52.286;21.124;2024-02-23T07:55:15;8.80;99.90
16700;DHT22;8466;52.286;21.124;2024-02-23T07:57:44;8.80;99.90
16700;DHT22;8466;52.286;21.124;2024-02-23T08:00:15;8.80;99.90
16700;DHT22;8466;52.286;21.124;2024-02-23T08:02:44;8.80;99.90
16700;DHT22;8466;52.286;21.124;2024-02-23T08:05:12;8.80;99.90
16700;DHT22;8466;52.286;21.124;2024-02-23T08:07:44;8.80;99.90
16700;DHT22;8466;52.286;21.124;2024-02-23T08:10:17;8.80;99.90
16700;DHT22;8466;52.286;21.124;2024-02-23T08:12:46;8.90;99.90
16700;DHT22;8466;52.286;21.124;2024-02-23T08:15:17;8.90;99.90
16700;DHT22;8466;52.286;21.124;2024-02-23T08:17:45;8.90;99.90
16700;DHT22;8466;52.286;21.124;2024-02-23T08:20:14;9.00;99.90
16700;DHT22;8466;52.286;21.124;2024-02-23T08:22:43;9.00;99.90
16700;DHT22;8466;52.286;21.124;2024-02-23T08:25:17;9.10;99.90
16700;DHT22;8466;52.286;21.124;2024-02-23T08:28:01;9.10;99.90
16700;DHT22;8466;52.286;21.124;2024-02-23T08:30:31;9.10;99.90
16700;DHT22;8466;52.286;21.124;2024-02-23T08:33:00;9.10;99.90
16700;DHT22;8466;52.286;21.124;2024-02-23T08:35:29;9.20;99.90
16700;DHT22;8466;52.286;21.124;2024-02-23T08:37:58;9.20;99.90
16700;DHT22;8466;52.286;21.124;2024-02-23T08:40:27;9.30;99.90
16700;DHT22;8466;52.286;21.124;2024-02-23T08:42:57;9.20;99.90
16700;DHT22;8466;52.286;21.124;2024-02-23T08:45:27;9.30;99.90
16700;DHT22;8466;52.286;21.124;2024-02-23T08:47:58;9.30;99.90
16700;DHT22;8466;52.286;21.124;2024-02-23T08:50:27;9.30;99.90
16700;DHT22;8466;52.286;21.124;2024-02-23T08:52:56;9.40;99.90
16700;DHT22;8466;52.286;21.124;2024-02-23T08:55:25;9.60;99.90
16700;DHT22;8466;52.286;21.124;2024-02-23T08:57:54;9.60;99.90
16700;DHT22;8466;52.286;21.124;2024-02-23T09:00:23;9.60;99.90
16700;DHT22;8466;52.286;21.124;2024-02-23T09:02:52;9.50;99.90
16700;DHT22;8466;52.286;21.124;2024-02-23T09:05:23;9.50;99.90
16700;DHT22;8466;52.286;21.124;2024-02-23T09:07:53;9.60;99.90
16700;DHT22;8466;52.286;21.124;2024-02-23T09:10:22;9.60;99.90
16700;DHT22;8466;52.286;21.124;2024-02-23T09:13:01;9.70;99.90
16700;DHT22;8466;52.286;21.124;2024-02-23T09:15:31;9.90;99.90
16700;DHT22;8466;52.286;21.124;2024-02-23T09:18:00;10.00;99.90
16700;DHT22;8466;52.286;21.124;2024-02-23T09:20:31;10.10;99.90
16700;DHT22;8466;52.286;21.124;2024-02-23T09:23:00;10.20;99.90
16700;DHT22;8466;52.286;21.124;2024-02-23T09:25:29;10.30;99.90
16700;DHT22;8466;52.286;21.124;2024-02-23T09:27:58;10.30;99.90
16700;DHT22;8466;52.286;21.124;2024-02-23T09:30:27;10.50;99.90
16700;DHT22;8466;52.286;21.124;2024-02-23T09:33:07;10.60;99.90
16700;DHT22;8466;52.286;21.124;2024-02-23T09:35:44;10.80;99.90
16700;DHT22;8466;52.286;21.124;2024-02-23T09:38:24;10.90;99.90
16700;DHT22;8466;52.286;21.124;2024-02-23T09:41:20;11.00;99.90
16700;DHT22;8466;52.286;21.124;2024-02-23T09:44:05;11.10;99.90
16700;DHT22;8466;52.286;21.124;2024-02-23T09:47:02;11.10;99.90
16700;DHT22;8466;52.286;21.124;2024-02-23T09:53:58;11.30;99.90
16700;DHT22;8466;52.286;21.124;2024-02-23T09:56:40;11.50;99.90
16700;DHT22;8466;52.286;21.124;2024-02-23T10:27:33;11.30;99.90
16700;DHT22;8466;52.286;21.124;2024-02-23T10:30:02;11.30;99.90
16700;DHT22;8466;52.286;21.124;2024-02-23T10:32:32;11.20;99.90
16700;DHT22;8466;52.286;21.124;2024-02-23T10:35:13;11.10;99.90
16700;DHT22;8466;52.286;21.124;2024-02-23T11:43:47;11.20;99.90
16700;DHT22;8466;52.286;21.124;2024-02-23T12:13:09;11.10;99.90
16700;DHT22;8466;52.286;21.124;2024-02-23T12:19:32;11.20;99.90
16700;DHT22;8466;52.286;21.124;2024-02-23T12:22:21;11.30;99.90
16700;DHT22;8466;52.286;21.124;2024-02-23T12:24:56;11.40;99.90
16700;DHT22;8466;52.286;21.124;2024-02-23T12:27:26;11.60;99.90
16700;DHT22;8466;52.286;21.124;2024-02-23T12:29:58;11.60;99.90
16700;DHT22;8466;52.286;21.124;2024-02-23T12:32:27;11.50;99.90
16700;DHT22;8466;52.286;21.124;2024-02-23T12:35:05;11.50;99.90
16700;DHT22;8466;52.286;21.124;2024-02-23T12:37:35;11.40;99.90
16700;DHT22;8466;52.286;21.124;2024-02-23T12:40:11;11.40;99.90
16700;DHT22;8466;52.286;21.124;2024-02-23T12:42:41;11.40;99.90
16700;DHT22;8466;52.286;21.124;2024-02-23T12:45:11;11.40;99.90
16700;DHT22;8466;52.286;21.124;2024-02-23T12:47:40;11.50;99.90
16700;DHT22;8466;52.286;21.124;2024-02-23T12:50:09;11.50;99.90
16700;DHT22;8466;52.286;21.124;2024-02-23T12:52:38;11.60;99.90
16700;DHT22;8466;52.286;21.124;2024-02-23T12:55:08;11.60;99.90
16700;DHT22;8466;52.286;21.124;2024-02-23T12:57:37;11.60;99.90
16700;DHT22;8466;52.286;21.124;2024-02-23T13:00:20;11.70;99.90
16700;DHT22;8466;52.286;21.124;2024-02-23T14:19:27;10.80;99.90
16700;DHT22;8466;52.286;21.124;2024-02-23T14:27:08;11.00;99.90
16700;DHT22;8466;52.286;21.124;2024-02-23T14:30:00;10.90;99.90
16700;DHT22;8466;52.286;21.124;2024-02-23T14:32:29;10.90;99.90
16700;DHT22;8466;52.286;21.124;2024-02-23T14:35:01;10.90;99.90
16700;DHT22;8466;52.286;21.124;2024-02-23T14:37:31;10.80;99.90
16700;DHT22;8466;52.286;21.124;2024-02-23T14:39:59;10.80;99.90
16700;DHT22;8466;52.286;21.124;2024-02-23T14:42:29;10.80;99.90
16700;DHT22;8466;52.286;21.124;2024-02-23T14:45:12;10.80;99.90
16700;DHT22;8466;52.286;21.124;2024-02-23T14:55:45;10.80;99.90
16700;DHT22;8466;52.286;21.124;2024-02-23T14:58:33;11.10;99.90
16700;DHT22;8466;52.286;21.124;2024-02-23T15:01:02;10.80;99.90
16700;DHT22;8466;52.286;21.124;2024-02-23T15:03:48;10.80;99.90
16700;DHT22;8466;52.286;21.124;2024-02-23T15:28:00;10.80;99.90
16700;DHT22;8466;52.286;21.124;2024-02-23T15:33:33;10.80;99.90
16700;DHT22;8466;52.286;21.124;2024-02-23T15:36:43;10.80;99.90
16700;DHT22;8466;52.286;21.124;2024-02-23T15:40:11;10.60;99.90
16700;DHT22;8466;52.286;21.124;2024-02-23T15:43:16;10.30;99.90
16700;DHT22;8466;52.286;21.124;2024-02-23T15:54:24;10.20;99.90
16700;DHT22;8466;52.286;21.124;2024-02-23T16:01:52;10.10;99.90
16700;DHT22;8466;52.286;21.124;2024-02-23T16:04:30;10.00;99.90
16700;DHT22;8466;52.286;21.124;2024-02-23T16:07:00;9.90;99.90
16700;DHT22;8466;52.286;21.124;2024-02-23T16:09:42;9.80;99.90
16700;DHT22;8466;52.286;21.124;2024-02-23T16:12:16;9.80;99.90
16700;DHT22;8466;52.286;21.124;2024-02-23T16:14:47;9.70;99.90
16700;DHT22;8466;52.286;21.124;2024-02-23T16:17:21;9.70;99.90
16700;DHT22;8466;52.286;21.124;2024-02-23T16:19:50;9.70;99.90
16700;DHT22;8466;52.286;21.124;2024-02-23T16:22:49;9.60;99.90
16700;DHT22;8466;52.286;21.124;2024-02-23T16:25:38;9.70;99.90
16700;DHT22;8466;52.286;21.124;2024-02-23T16:28:18;9.50;99.90
16700;DHT22;8466;52.286;21.124;2024-02-23T16:30:52;9.50;99.90
16700;DHT22;8466;52.286;21.124;2024-02-23T16:33:29;9.40;99.90
16700;DHT22;8466;52.286;21.124;2024-02-23T16:36:00;9.40;99.90
16700;DHT22;8466;52.286;21.124;2024-02-23T16:39:22;9.10;99.90
16700;DHT22;8466;52.286;21.124;2024-02-23T16:42:29;9.40;99.90
16700;DHT22;8466;52.286;21.124;2024-02-23T16:45:42;9.30;99.90
16700;DHT22;8466;52.286;21.124;2024-02-23T16:48:11;9.30;99.90
16700;DHT22;8466;52.286;21.124;2024-02-23T16:50:57;9.30;99.90
16700;DHT22;8466;52.286;21.124;2024-02-23T16:53:30;9.30;99.90
16700;DHT22;8466;52.286;21.124;2024-02-23T16:56:04;9.30;99.90
16700;DHT22;8466;52.286;21.124;2024-02-23T16:59:15;9.20;99.90
16700;DHT22;8466;52.286;21.124;2024-02-23T19:53:00;9.00;99.90
16700;DHT22;8466;52.286;21.124;2024-02-23T19:55:37;8.90;99.90
16700;DHT22;8466;52.286;21.124;2024-02-23T19:58:43;9.00;99.90
16700;DHT22;8466;52.286;21.124;2024-02-23T20:01:17;9.00;99.90
16700;DHT22;8466;52.286;21.124;2024-02-23T20:04:17;9.10;99.90
16700;DHT22;8466;52.286;21.124;2024-02-23T20:06:47;9.00;99.90
16700;DHT22;8466;52.286;21.124;2024-02-23T20:09:18;9.00;99.90
16700;DHT22;8466;52.286;21.124;2024-02-23T20:11:46;8.90;99.90
16700;DHT22;8466;52.286;21.124;2024-02-23T20:14:17;8.90;99.90
16700;DHT22;8466;52.286;21.124;2024-02-23T20:17:08;9.00;99.90
16700;DHT22;8466;52.286;21.124;2024-02-23T20:19:55;9.00;99.90
16700;DHT22;8466;52.286;21.124;2024-02-23T20:22:41;8.90;99.90
16700;DHT22;8466;52.286;21.124;2024-02-23T20:25:11;8.90;99.90
16700;DHT22;8466;52.286;21.124;2024-02-23T20:27:43;8.90;99.90
16700;DHT22;8466;52.286;21.124;2024-02-23T20:30:18;8.90;99.90
16700;DHT22;8466;52.286;21.124;2024-02-23T20:32:47;8.90;99.90
16700;DHT22;8466;52.286;21.124;2024-02-23T20:35:38;8.90;99.90
16700;DHT22;8466;52.286;21.124;2024-02-23T20:38:30;8.90;99.90
16700;DHT22;8466;52.286;21.124;2024-02-23T20:41:01;8.90;99.90
16700;DHT22;8466;52.286;21.124;2024-02-23T20:43:30;8.80;99.90
16700;DHT22;8466;52.286;21.124;2024-02-23T20:45:59;8.80;99.90
16700;DHT22;8466;52.286;21.124;2024-02-23T20:48:27;8.80;99.90
16700;DHT22;8466;52.286;21.124;2024-02-23T20:50:56;8.80;99.90
16700;DHT22;8466;52.286;21.124;2024-02-23T20:53:26;8.80;99.90
16700;DHT22;8466;52.286;21.124;2024-02-23T20:55:55;8.80;99.90
16700;DHT22;8466;52.286;21.124;2024-02-23T20:58:26;8.80;99.90
16700;DHT22;8466;52.286;21.124;2024-02-23T21:00:55;8.80;99.90
16700;DHT22;8466;52.286;21.124;2024-02-23T21:03:28;8.80;99.90
16700;DHT22;8466;52.286;21.124;2024-02-23T21:06:00;8.80;99.90
16700;DHT22;8466;52.286;21.124;2024-02-23T21:12:30;8.80;99.90
16700;DHT22;8466;52.286;21.124;2024-02-23T21:18:49;8.70;99.90
16700;DHT22;8466;52.286;21.124;2024-02-23T21:21:20;8.70;99.90
16700;DHT22;8466;52.286;21.124;2024-02-23T21:23:49;8.80;99.90
16700;DHT22;8466;52.286;21.124;2024-02-23T21:26:21;8.80;99.90
16700;DHT22;8466;52.286;21.124;2024-02-23T21:28:53;8.80;99.90
16700;DHT22;8466;52.286;21.124;2024-02-23T21:31:23;8.80;99.90
16700;DHT22;8466;52.286;21.124;2024-02-23T21:33:57;8.70;99.90
16700;DHT22;8466;52.286;21.124;2024-02-23T21:47:33;8.70;99.90
16700;DHT22;8466;52.286;21.124;2024-02-23T21:50:06;8.70;99.90
16700;DHT22;8466;52.286;21.124;2024-02-23T21:52:51;8.70;99.90
16700;DHT22;8466;52.286;21.124;2024-02-23T21:55:30;8.70;99.90
16700;DHT22;8466;52.286;21.124;2024-02-23T21:58:01;8.70;99.90
16700;DHT22;8466;52.286;21.124;2024-02-23T22:00:34;8.70;99.90
16700;DHT22;8466;52.286;21.124;2024-02-23T22:03:04;8.70;99.90
16700;DHT22;8466;52.286;21.124;2024-02-23T22:05:36;8.80;99.90
16700;DHT22;8466;52.286;21.124;2024-02-23T22:08:08;8.70;99.90
16700;DHT22;8466;52.286;21.124;2024-02-23T22:10:37;8.60;99.90
16700;DHT22;8466;52.286;21.124;2024-02-23T22:13:38;8.70;99.90
16700;DHT22;8466;52.286;21.124;2024-02-23T22:16:10;8.70;99.90
16700;DHT22;8466;52.286;21.124;2024-02-23T22:18:45;8.70;99.90
16700;DHT22;8466;52.286;21.124;2024-02-23T22:21:16;8.70;99.90
16700;DHT22;8466;52.286;21.124;2024-02-23T22:23:48;8.70;99.90
16700;DHT22;8466;52.286;21.124;2024-02-23T22:26:19;8.60;99.90
16700;DHT22;8466;52.286;21.124;2024-02-23T22:29:05;8.60;99.90
16700;DHT22;8466;52.286;21.124;2024-02-23T22:31:52;8.60;99.90
16700;DHT22;8466;52.286;21.124;2024-02-23T22:34:37;8.70;99.90
16700;DHT22;8466;52.286;21.124;2024-02-23T22:37:16;8.60;99.90
16700;DHT22;8466;52.286;21.124;2024-02-23T22:40:13;8.50;99.90
16700;DHT22;8466;52.286;21.124;2024-02-23T22:42:52;8.50;99.90
16700;DHT22;8466;52.286;21.124;2024-02-23T22:45:36;8.50;99.90
16700;DHT22;8466;52.286;21.124;2024-02-23T22:48:29;8.50;99.90
16700;DHT22;8466;52.286;21.124;2024-02-23T22:51:07;8.50;99.90
16700;DHT22;8466;52.286;21.124;2024-02-23T22:53:48;8.30;99.90
16700;DHT22;8466;52.286;21.124;2024-02-23T22:56:23;8.30;99.90
16700;DHT22;8466;52.286;21.124;2024-02-23T22:58:52;8.20;99.90
16700;DHT22;8466;52.286;21.124;2024-02-23T23:01:21;8.20;99.90
16700;DHT22;8466;52.286;21.124;2024-02-23T23:03:52;8.10;99.90
16700;DHT22;8466;52.286;21.124;2024-02-23T23:10:16;8.10;99.90
16700;DHT22;8466;52.286;21.124;2024-02-23T23:20:46;7.70;99.90
16700;DHT22;8466;52.286;21.124;2024-02-23T23:31:29;7.80;99.90
16700;DHT22;8466;52.286;21.124;2024-02-23T23:33:58;8.00;99.90
16700;DHT22;8466;52.286;21.124;2024-02-23T23:36:27;8.00;99.90
16700;DHT22;8466;52.286;21.124;2024-02-23T23:38:56;8.10;99.90
16700;DHT22;8466;52.286;21.124;2024-02-23T23:41:26;8.10;99.90
16700;DHT22;8466;52.286;21.124;2024-02-23T23:43:55;8.20;99.90
16700;DHT22;8466;52.286;21.124;2024-02-23T23:46:23;8.10;99.90
16700;DHT22;8466;52.286;21.124;2024-02-23T23:48:54;8.10;99.90
16700;DHT22;8466;52.286;21.124;2024-02-23T23:51:22;8.10;99.90
16700;DHT22;8466;52.286;21.124;2024-02-23T23:54:15;8.00;99.90
16700;DHT22;8466;52.286;21.124;2024-02-23T23:56:57;8.10;99.90
